Palmyra, Missouri
Current Conditions -  °F | °C
As of 3:15 AM on Friday 24 Oct 2014 (Local Time) from KHAE Reporting Station
Haze Haze  
Wind Chill: 54°   Ceiling: Unl
Heat Index: 54°   Visibility: 5mi
Dew Point: 52°   Wind: 5mph
Humidity: 94%   Direction: 240°WSW
Pressure: 30.07"   Gusts: NA
Location:  39.79°N, 91.52°W
Report Text: KHAE 240815Z AUTO 24004KT 5SM BR CLR 12/11 A3007 RMK AO2
Loading
Personal Weather Stations






























Interactive Weather Map
Tropical Storm Tracking
New forecast layout! Learn more

10-Day Weather Forecast

Advertisements
Track Severe Weather on mobile